createdAt,value
2022-11-25T00:00:06.002Z,4.98
2022-11-25T00:03:27.826Z,4.99
2022-11-25T00:06:35.861Z,4.94
2022-11-25T00:09:56.249Z,4.82
2022-11-25T00:13:02.549Z,4.75
2022-11-25T00:16:10.887Z,4.86
2022-11-25T00:19:18.804Z,4.97
2022-11-25T00:22:25.150Z,4.95
2022-11-25T00:25:31.517Z,4.91
2022-11-25T00:28:38.253Z,4.94
2022-11-25T00:31:44.511Z,5.12
2022-11-25T00:34:52.523Z,5.01
2022-11-25T00:37:58.854Z,4.96
2022-11-25T00:41:21.902Z,4.97
2022-11-25T00:44:39.162Z,4.98
2022-11-25T00:47:45.788Z,4.96
2022-11-25T00:50:53.244Z,4.87
2022-11-25T00:53:59.458Z,4.90
2022-11-25T00:57:05.987Z,4.90
2022-11-25T01:00:13.915Z,4.94
2022-11-25T01:03:20.205Z,4.87
2022-11-25T01:06:28.209Z,4.84
2022-11-25T01:09:48.530Z,4.95
2022-11-25T01:12:55.255Z,4.93
2022-11-25T01:16:03.104Z,4.90
2022-11-25T01:19:09.528Z,4.88
2022-11-25T01:22:31.416Z,4.80
2022-11-25T01:25:38.149Z,4.77
2022-11-25T01:28:44.489Z,4.91
2022-11-25T01:31:51.545Z,4.92
2022-11-25T01:34:57.561Z,4.87
2022-11-25T01:38:18.914Z,4.83
2022-11-25T01:41:27.710Z,4.87
2022-11-25T01:44:34.828Z,4.80
2022-11-25T01:47:41.547Z,4.76
2022-11-25T01:51:02.616Z,4.88
2022-11-25T01:54:28.664Z,4.73
2022-11-25T01:57:40.646Z,4.81
2022-11-25T02:00:51.505Z,4.77
2022-11-25T02:04:00.094Z,4.82
2022-11-25T02:07:11.899Z,4.79
2022-11-25T02:10:23.757Z,4.78
2022-11-25T02:13:30.415Z,4.83
2022-11-25T02:16:36.971Z,4.84
2022-11-25T02:19:59.754Z,4.91
2022-11-25T02:23:14.983Z,4.80
2022-11-25T02:26:22.985Z,4.78
2022-11-25T02:29:29.623Z,4.89
2022-11-25T02:32:36.249Z,4.74
2022-11-25T02:35:44.796Z,4.85
2022-11-25T03:56:02.719Z,3.26
2022-11-25T03:59:09.105Z,3.20
2022-11-25T04:02:15.533Z,3.46
2022-11-25T04:05:21.898Z,3.63
2022-11-25T04:08:28.514Z,3.70
2022-11-25T04:11:54.044Z,3.76
2022-11-25T04:15:00.165Z,3.91
2022-11-25T04:18:06.524Z,4.08
2022-11-25T04:21:12.685Z,4.24
2022-11-25T04:24:18.684Z,4.32
2022-11-25T04:27:26.073Z,4.42
2022-11-25T04:30:32.152Z,4.35
2022-11-25T04:33:38.930Z,4.37
2022-11-25T04:36:45.633Z,4.32
2022-11-25T04:39:52.295Z,4.41
2022-11-25T04:43:06.038Z,4.41
2022-11-25T04:46:17.834Z,4.37
2022-11-25T04:49:24.236Z,4.41
2022-11-25T04:52:30.761Z,4.37
2022-11-25T04:55:37.019Z,4.36
2022-11-25T04:59:01.061Z,4.35
2022-11-25T05:02:07.699Z,4.44
2022-11-25T05:05:14.238Z,4.43
2022-11-25T05:08:20.643Z,4.39
2022-11-25T05:11:27.099Z,4.35
2022-11-25T05:14:35.953Z,4.42
2022-11-25T05:17:42.557Z,4.47
2022-11-25T05:20:48.540Z,4.46
2022-11-25T05:23:56.346Z,4.50
2022-11-25T05:27:02.805Z,4.37
2022-11-25T05:30:11.555Z,4.49
2022-11-25T05:33:17.858Z,4.56
2022-11-25T05:36:24.031Z,4.55
2022-11-25T05:39:30.395Z,4.58
2022-11-25T05:42:36.571Z,4.59
2022-11-25T05:45:44.487Z,4.65
2022-11-25T05:48:54.552Z,4.70
2022-11-25T05:52:01.398Z,4.71
2022-11-25T05:55:08.766Z,4.64
2022-11-25T05:58:14.791Z,4.77
2022-11-25T06:01:22.687Z,4.75
2022-11-25T06:04:28.950Z,4.79
2022-11-25T06:07:35.434Z,4.86
2022-11-25T06:10:41.845Z,4.76
2022-11-25T06:13:48.464Z,4.87
2022-11-25T06:16:56.418Z,4.83
2022-11-25T06:20:02.765Z,4.88
2022-11-25T06:23:09.265Z,5.14
2022-11-25T06:26:17.593Z,5.26
2022-11-25T06:29:24.214Z,5.37
2022-11-25T06:32:35.239Z,5.58
2022-11-25T06:35:43.865Z,5.64
2022-11-25T06:38:52.417Z,5.57
2022-11-25T06:41:58.766Z,5.64
2022-11-25T06:45:05.683Z,5.65
2022-11-25T06:48:13.579Z,5.82
2022-11-25T06:51:19.766Z,5.97
2022-11-25T06:54:25.890Z,5.92
2022-11-25T06:57:32.119Z,5.99
2022-11-25T07:00:38.666Z,6.15
2022-11-25T07:03:47.353Z,6.20
2022-11-25T07:06:53.679Z,6.11
2022-11-25T07:10:00.265Z,6.24
2022-11-25T07:13:06.430Z,6.28
2022-11-25T07:16:13.868Z,6.42
2022-11-25T07:19:21.574Z,6.67
2022-11-25T07:22:28.092Z,6.73
2022-11-25T07:25:34.853Z,6.77
2022-11-25T07:28:42.071Z,6.76
2022-11-25T07:31:51.053Z,6.82
2022-11-25T07:34:58.706Z,6.75
2022-11-25T07:38:05.184Z,6.90
2022-11-25T07:41:13.412Z,7.16
2022-11-25T07:44:20.000Z,7.10
2022-11-25T07:47:26.537Z,7.07
2022-11-25T07:50:34.095Z,7.08
2022-11-25T07:53:40.143Z,7.53
2022-11-25T07:56:46.753Z,7.33
2022-11-25T07:59:53.144Z,7.28
2022-11-25T08:02:59.651Z,7.32
2022-11-25T08:06:09.613Z,7.04
2022-11-25T08:09:19.459Z,7.37
2022-11-25T08:12:25.818Z,7.44
2022-11-25T08:15:31.707Z,7.14
2022-11-25T08:18:38.233Z,7.50
2022-11-25T08:21:48.049Z,7.41
2022-11-25T08:24:54.274Z,7.63
2022-11-25T08:28:01.003Z,7.32
2022-11-25T08:31:10.522Z,7.43
2022-11-25T08:34:20.616Z,7.49
2022-11-25T08:37:28.514Z,7.23
2022-11-25T08:40:35.531Z,7.62
2022-11-25T08:43:42.356Z,7.36
2022-11-25T08:46:48.616Z,7.83
2022-11-25T08:49:56.283Z,7.90
2022-11-25T08:53:03.965Z,7.71
2022-11-25T08:56:10.750Z,7.93
2022-11-25T08:59:16.915Z,8.03
2022-11-25T09:02:23.192Z,8.23
2022-11-25T09:05:35.798Z,8.14
2022-11-25T09:08:44.680Z,7.92
2022-11-25T09:11:51.299Z,8.26
2022-11-25T09:15:01.822Z,8.16
2022-11-25T09:18:10.329Z,8.36
2022-11-25T09:21:18.552Z,8.55
2022-11-25T09:24:26.477Z,8.71
2022-11-25T09:27:33.901Z,8.71
2022-11-25T09:30:40.349Z,8.76
2022-11-25T09:33:46.741Z,8.80
2022-11-25T09:36:53.157Z,8.72
2022-11-25T09:40:00.869Z,8.81
2022-11-25T09:43:37.192Z,8.64
2022-11-25T09:46:57.833Z,8.84
2022-11-25T09:50:15.375Z,8.86
2022-11-25T09:53:36.900Z,9.06
2022-11-25T09:56:48.580Z,9.44
2022-11-25T10:00:04.530Z,9.25
2022-11-25T10:03:19.951Z,9.20
2022-11-25T10:06:28.579Z,9.26
2022-11-25T10:09:36.510Z,9.19
2022-11-25T10:12:46.133Z,9.16
2022-11-25T10:15:53.767Z,9.51
2022-11-25T10:19:03.381Z,9.23
2022-11-25T10:22:22.844Z,9.31
2022-11-25T10:25:32.108Z,9.21
2022-11-25T10:28:55.922Z,8.84
2022-11-25T10:32:13.267Z,8.93
2022-11-25T10:35:28.039Z,8.88
2022-11-25T10:38:41.721Z,9.01
2022-11-25T10:41:54.539Z,9.21
2022-11-25T10:45:08.733Z,9.24
2022-11-25T10:48:26.730Z,9.24
2022-11-25T10:51:47.412Z,9.06
2022-11-25T10:54:59.647Z,9.60
2022-11-25T10:58:27.945Z,9.03
2022-11-25T11:01:35.836Z,8.92
2022-11-25T11:04:54.543Z,8.91
2022-11-25T11:08:23.121Z,9.51
2022-11-25T11:11:29.450Z,9.53
2022-11-25T11:14:36.015Z,9.59
2022-11-25T11:17:44.162Z,9.33
2022-11-25T11:20:52.571Z,9.22
2022-11-25T11:24:00.635Z,9.01
2022-11-25T11:27:14.448Z,9.33
2022-11-25T11:30:23.804Z,9.19
2022-11-25T11:33:35.723Z,9.41
2022-11-25T11:37:17.224Z,9.08
2022-11-25T11:40:30.063Z,9.26
2022-11-25T11:44:05.142Z,9.10
2022-11-25T11:47:23.096Z,8.97
2022-11-25T11:50:36.721Z,9.08
2022-11-25T11:53:54.356Z,8.93
2022-11-25T11:57:05.338Z,9.05
2022-11-25T12:00:15.034Z,8.74
2022-11-25T12:03:25.404Z,8.57
2022-11-25T12:06:38.337Z,9.16
2022-11-25T12:09:49.000Z,9.25
2022-11-25T12:13:00.452Z,8.89
2022-11-25T12:16:12.873Z,8.88
2022-11-25T12:19:26.628Z,9.00
2022-11-25T12:22:38.014Z,9.01
2022-11-25T12:25:45.074Z,8.96
2022-11-25T12:28:56.665Z,8.84
2022-11-25T12:32:18.423Z,8.71
2022-11-25T12:35:37.994Z,9.04
2022-11-25T12:39:06.053Z,8.69
2022-11-25T12:42:16.548Z,8.74
2022-11-25T12:45:25.092Z,8.75
2022-11-25T12:48:32.497Z,8.58
2022-11-25T12:51:59.443Z,8.43
2022-11-25T12:55:21.076Z,8.59
2022-11-25T12:58:49.602Z,8.78
2022-11-25T13:02:25.371Z,8.60
2022-11-25T13:05:52.464Z,8.74
2022-11-25T13:09:03.878Z,8.35
2022-11-25T13:12:22.038Z,8.46
2022-11-25T13:15:31.761Z,8.00
2022-11-25T13:18:44.983Z,8.30
2022-11-25T13:22:02.782Z,7.88
2022-11-25T13:25:26.119Z,8.17
2022-11-25T13:28:35.361Z,7.86
2022-11-25T13:31:59.405Z,7.75
2022-11-25T13:35:48.134Z,7.48
2022-11-25T13:39:07.023Z,7.00
2022-11-25T13:42:21.558Z,6.90
2022-11-25T13:45:32.677Z,6.57
2022-11-25T13:48:39.375Z,6.58
2022-11-25T13:51:50.745Z,6.49
2022-11-25T13:54:58.426Z,6.52
2022-11-25T13:58:23.343Z,6.37
2022-11-25T14:01:31.070Z,6.31
2022-11-25T14:04:48.938Z,6.24
2022-11-25T14:08:14.964Z,6.21
2022-11-25T14:11:53.676Z,6.12
2022-11-25T14:15:28.397Z,6.08
2022-11-25T14:22:35.868Z,6.07
2022-11-25T14:25:51.185Z,5.99
2022-11-25T14:29:01.939Z,6.05
2022-11-25T14:32:14.635Z,5.85
2022-11-25T14:35:28.305Z,5.87
2022-11-25T14:38:43.120Z,5.91
2022-11-25T14:41:56.226Z,5.81
2022-11-25T14:45:03.333Z,5.76
2022-11-25T14:48:17.466Z,5.76
2022-11-25T14:51:26.778Z,5.64
2022-11-25T14:54:33.043Z,5.59
2022-11-25T14:57:45.088Z,5.66
2022-11-25T15:00:52.354Z,5.70
2022-11-25T15:04:07.284Z,5.56
2022-11-25T15:07:26.334Z,5.59
2022-11-25T15:10:41.634Z,5.60
2022-11-25T15:13:50.410Z,5.49
2022-11-25T15:16:58.881Z,5.47
2022-11-25T15:20:12.776Z,5.30
2022-11-25T15:23:27.118Z,5.34
2022-11-25T15:26:36.299Z,5.37
2022-11-25T15:29:44.890Z,5.39
2022-11-25T15:32:52.625Z,5.36
2022-11-25T15:35:59.193Z,5.47
2022-11-25T15:39:18.589Z,5.56
2022-11-25T15:42:28.504Z,5.58
2022-11-25T15:45:43.778Z,5.58
2022-11-25T15:48:52.153Z,5.58
2022-11-25T15:52:02.008Z,5.56
2022-11-25T15:55:21.728Z,5.53
2022-11-25T15:58:28.174Z,5.53
2022-11-25T16:01:35.174Z,5.54
2022-11-25T16:04:41.615Z,5.58
2022-11-25T16:08:38.602Z,5.55
2022-11-25T16:11:47.620Z,5.58
2022-11-25T16:14:53.717Z,5.54
2022-11-25T16:18:17.897Z,5.52
2022-11-25T16:21:30.658Z,5.49
2022-11-25T16:24:42.294Z,5.53
2022-11-25T16:27:50.506Z,5.54
2022-11-25T16:30:59.403Z,5.44
2022-11-25T16:34:14.599Z,5.55
2022-11-25T16:37:20.960Z,5.37
2022-11-25T16:40:28.088Z,5.43
2022-11-25T16:43:37.205Z,5.41
2022-11-25T16:46:43.535Z,5.42
2022-11-25T16:49:50.363Z,5.31
2022-11-25T16:52:56.842Z,5.32
2022-11-25T16:56:03.867Z,5.25
2022-11-25T16:59:17.235Z,5.38
2022-11-25T17:02:24.360Z,5.27
2022-11-25T17:05:31.200Z,5.25
2022-11-25T17:08:38.470Z,5.26
2022-11-25T17:11:49.003Z,5.28
2022-11-25T17:14:57.038Z,5.23
2022-11-25T17:18:05.864Z,5.10
2022-11-25T17:21:14.748Z,5.22
2022-11-25T17:24:23.334Z,5.16
2022-11-25T17:27:32.335Z,5.08
2022-11-25T17:30:40.920Z,5.02
2022-11-25T17:33:48.914Z,4.94
2022-11-25T17:36:55.327Z,5.01
2022-11-25T17:40:01.751Z,5.02
2022-11-25T17:43:10.497Z,5.02
2022-11-25T17:46:18.718Z,4.93
2022-11-25T17:49:24.993Z,5.00
2022-11-25T17:52:31.206Z,4.88
2022-11-25T17:55:39.066Z,4.80
2022-11-25T17:58:45.608Z,4.89
2022-11-25T18:01:53.436Z,4.87
2022-11-25T18:04:59.875Z,4.93
2022-11-25T18:08:06.219Z,4.87
2022-11-25T18:11:17.921Z,4.82
2022-11-25T18:14:28.331Z,4.81
2022-11-25T18:17:37.388Z,4.66
2022-11-25T18:20:43.559Z,4.74
2022-11-25T18:23:49.657Z,4.72
2022-11-25T18:26:57.595Z,4.70
2022-11-25T18:30:07.340Z,4.62
2022-11-25T18:33:15.915Z,4.56
2022-11-25T18:36:22.305Z,4.55
2022-11-25T18:39:28.684Z,4.62
2022-11-25T18:42:34.796Z,4.53
2022-11-25T18:45:41.529Z,4.53
2022-11-25T18:48:49.272Z,4.45
2022-11-25T18:51:55.535Z,4.41
2022-11-25T18:55:01.768Z,4.18
2022-11-25T18:58:16.677Z,4.04
2022-11-25T19:01:24.574Z,4.09
2022-11-25T19:04:32.627Z,4.06
2022-11-25T19:07:39.209Z,3.80
2022-11-25T19:10:47.300Z,3.79
2022-11-25T19:13:53.861Z,3.71
2022-11-25T19:17:03.030Z,3.69
2022-11-25T19:20:16.883Z,3.59
2022-11-25T19:23:26.140Z,3.69
2022-11-25T19:26:38.003Z,3.62
2022-11-25T19:29:45.673Z,3.72
2022-11-25T19:32:55.507Z,3.50
2022-11-25T19:36:03.448Z,3.31
2022-11-25T19:39:17.548Z,3.29
2022-11-25T19:42:25.905Z,3.20
2022-11-25T19:45:32.193Z,3.09
2022-11-25T19:48:40.641Z,3.06
2022-11-25T19:51:49.153Z,2.94
2022-11-25T19:54:55.513Z,2.96
2022-11-25T19:58:02.170Z,3.08
2022-11-25T20:01:15.098Z,3.04
2022-11-25T20:04:23.455Z,2.77
2022-11-25T20:07:32.298Z,2.77
2022-11-25T20:10:39.139Z,2.61
2022-11-25T20:13:47.004Z,2.79
2022-11-25T20:16:53.694Z,2.64
2022-11-25T20:20:04.435Z,2.51
2022-11-25T20:23:16.380Z,2.50
2022-11-25T20:26:29.609Z,2.66
2022-11-25T20:29:35.709Z,2.72
2022-11-25T20:32:41.978Z,2.45
2022-11-25T20:35:51.307Z,2.03
2022-11-25T20:38:59.921Z,1.68
2022-11-25T20:42:06.748Z,1.51
2022-11-25T20:45:16.451Z,2.09
2022-11-25T20:48:22.194Z,1.94
2022-11-25T20:51:28.364Z,2.05
2022-11-25T20:54:36.291Z,1.74
2022-11-25T20:57:42.882Z,1.49
2022-11-25T21:00:55.552Z,1.41
2022-11-25T21:04:03.444Z,1.59
2022-11-25T21:07:15.486Z,1.88
2022-11-25T21:10:28.501Z,1.79
2022-11-25T21:13:34.568Z,1.58
2022-11-25T21:16:41.061Z,1.41
2022-11-25T21:19:47.674Z,1.38
2022-11-25T21:22:56.829Z,1.56
2022-11-25T21:26:08.800Z,1.30
2022-11-25T21:29:16.895Z,1.59
2022-11-25T21:32:24.750Z,1.04
2022-11-25T21:35:34.139Z,1.31
2022-11-25T21:38:40.576Z,1.58
2022-11-25T21:42:00.182Z,1.15
2022-11-25T21:45:07.644Z,1.05
2022-11-25T21:48:20.441Z,1.20
2022-11-25T21:51:26.948Z,1.02
2022-11-25T21:54:33.371Z,0.80
2022-11-25T21:57:41.372Z,1.01
2022-11-25T22:00:51.019Z,1.04
2022-11-25T22:03:57.489Z,0.76
2022-11-25T22:07:03.414Z,0.32
2022-11-25T22:10:10.337Z,0.75
2022-11-25T22:13:21.380Z,-0.42
2022-11-25T22:16:31.212Z,-0.30
2022-11-25T22:19:37.873Z,-0.05
2022-11-25T22:22:44.713Z,0.16
2022-11-25T22:25:51.542Z,0.59
2022-11-25T22:29:00.337Z,0.42
2022-11-25T22:32:12.479Z,0.28
2022-11-25T22:35:21.647Z,-0.25
2022-11-25T22:38:29.273Z,-0.24
2022-11-25T22:41:35.885Z,0.33
2022-11-25T22:44:46.839Z,0.31
2022-11-25T22:47:53.750Z,0.51
2022-11-25T22:51:00.140Z,0.38
2022-11-25T22:54:12.528Z,0.46
2022-11-25T22:57:19.333Z,0.14
2022-11-25T23:00:29.301Z,0.64
2022-11-25T23:03:36.575Z,0.38
2022-11-25T23:06:43.093Z,0.46
2022-11-25T23:09:49.816Z,0.50
2022-11-25T23:12:56.562Z,0.29
2022-11-25T23:16:06.426Z,0.73
2022-11-25T23:19:16.853Z,0.02
2022-11-25T23:22:23.463Z,-0.40
2022-11-25T23:25:29.863Z,0.48
2022-11-25T23:28:36.384Z,0.38
2022-11-25T23:31:44.303Z,-0.12
2022-11-25T23:34:51.939Z,-1.02
2022-11-25T23:37:59.944Z,-0.23
2022-11-25T23:41:06.417Z,0.20
2022-11-25T23:44:16.771Z,0.13
2022-11-25T23:47:24.712Z,0.04
2022-11-25T23:50:34.084Z,0.49
2022-11-25T23:53:42.424Z,0.15
2022-11-25T23:56:49.270Z,0.10
2022-11-25T23:59:55.776Z,-0.11
